sensor_id;sensor_type;location;lat;lon;timestamp;temperature;humidity
28520;DHT22;15732;48.534;20.382;2023-10-08T00:01:22;13.90;99.90
28520;DHT22;15732;48.534;20.382;2023-10-08T00:03:49;13.90;99.90
28520;DHT22;15732;48.534;20.382;2023-10-08T00:06:17;13.90;99.90
28520;DHT22;15732;48.534;20.382;2023-10-08T00:08:46;13.80;99.90
28520;DHT22;15732;48.534;20.382;2023-10-08T00:11:13;13.80;99.90
28520;DHT22;15732;48.534;20.382;2023-10-08T00:13:42;13.80;99.90
28520;DHT22;15732;48.534;20.382;2023-10-08T00:16:09;13.80;99.90
28520;DHT22;15732;48.534;20.382;2023-10-08T00:18:37;13.80;99.90
28520;DHT22;15732;48.534;20.382;2023-10-08T00:21:04;13.80;99.90
28520;DHT22;15732;48.534;20.382;2023-10-08T00:23:36;13.80;99.90
28520;DHT22;15732;48.534;20.382;2023-10-08T00:26:10;13.80;99.90
28520;DHT22;15732;48.534;20.382;2023-10-08T00:28:38;13.80;99.90
28520;DHT22;15732;48.534;20.382;2023-10-08T00:31:11;13.70;99.90
28520;DHT22;15732;48.534;20.382;2023-10-08T00:33:41;13.70;99.90
28520;DHT22;15732;48.534;20.382;2023-10-08T00:36:10;13.70;99.90
28520;DHT22;15732;48.534;20.382;2023-10-08T00:38:45;13.60;99.90
28520;DHT22;15732;48.534;20.382;2023-10-08T00:41:20;13.60;99.90
28520;DHT22;15732;48.534;20.382;2023-10-08T00:43:50;13.50;99.90
28520;DHT22;15732;48.534;20.382;2023-10-08T00:46:17;13.50;99.90
28520;DHT22;15732;48.534;20.382;2023-10-08T00:48:49;13.50;99.90
28520;DHT22;15732;48.534;20.382;2023-10-08T00:51:24;13.50;99.90
28520;DHT22;15732;48.534;20.382;2023-10-08T00:53:54;13.40;99.90
28520;DHT22;15732;48.534;20.382;2023-10-08T00:56:26;13.40;99.90
28520;DHT22;15732;48.534;20.382;2023-10-08T00:59:14;13.30;99.90
28520;DHT22;15732;48.534;20.382;2023-10-08T01:01:44;13.20;99.90
28520;DHT22;15732;48.534;20.382;2023-10-08T01:04:18;13.20;99.90
28520;DHT22;15732;48.534;20.382;2023-10-08T01:06:52;13.10;99.90
28520;DHT22;15732;48.534;20.382;2023-10-08T01:09:25;13.20;99.90
28520;DHT22;15732;48.534;20.382;2023-10-08T01:12:37;13.20;99.90
28520;DHT22;15732;48.534;20.382;2023-10-08T01:14:58;13.20;99.90
28520;DHT22;15732;48.534;20.382;2023-10-08T01:17:46;13.20;99.90
28520;DHT22;15732;48.534;20.382;2023-10-08T01:20:26;13.30;99.90
28520;DHT22;15732;48.534;20.382;2023-10-08T01:25:36;13.30;99.90
28520;DHT22;15732;48.534;20.382;2023-10-08T01:28:07;13.30;99.90
28520;DHT22;15732;48.534;20.382;2023-10-08T01:30:48;13.30;99.90
28520;DHT22;15732;48.534;20.382;2023-10-08T01:33:22;13.30;99.90
28520;DHT22;15732;48.534;20.382;2023-10-08T01:35:53;13.30;99.90
28520;DHT22;15732;48.534;20.382;2023-10-08T01:38:23;13.30;99.90
28520;DHT22;15732;48.534;20.382;2023-10-08T01:40:52;13.30;99.90
28520;DHT22;15732;48.534;20.382;2023-10-08T01:43:19;13.30;99.90
28520;DHT22;15732;48.534;20.382;2023-10-08T01:45:46;13.30;99.90
28520;DHT22;15732;48.534;20.382;2023-10-08T01:48:18;13.20;99.90
28520;DHT22;15732;48.534;20.382;2023-10-08T01:50:54;13.20;99.90
28520;DHT22;15732;48.534;20.382;2023-10-08T01:53:27;13.20;99.90
28520;DHT22;15732;48.534;20.382;2023-10-08T01:55:54;13.20;99.90
28520;DHT22;15732;48.534;20.382;2023-10-08T01:58:21;13.10;99.90
28520;DHT22;15732;48.534;20.382;2023-10-08T02:00:51;13.10;99.90
28520;DHT22;15732;48.534;20.382;2023-10-08T02:03:20;13.10;99.90
28520;DHT22;15732;48.534;20.382;2023-10-08T02:05:51;13.10;99.90
28520;DHT22;15732;48.534;20.382;2023-10-08T02:08:19;13.10;99.90
28520;DHT22;15732;48.534;20.382;2023-10-08T02:10:46;13.00;99.90
28520;DHT22;15732;48.534;20.382;2023-10-08T02:13:13;13.00;99.90
28520;DHT22;15732;48.534;20.382;2023-10-08T02:15:40;13.00;99.90
28520;DHT22;15732;48.534;20.382;2023-10-08T02:18:07;13.00;99.90
28520;DHT22;15732;48.534;20.382;2023-10-08T02:20:34;13.00;99.90
28520;DHT22;15732;48.534;20.382;2023-10-08T02:23:01;13.00;99.90
28520;DHT22;15732;48.534;20.382;2023-10-08T02:25:28;12.90;99.90
28520;DHT22;15732;48.534;20.382;2023-10-08T02:27:58;12.90;99.90
28520;DHT22;15732;48.534;20.382;2023-10-08T02:30:29;12.80;99.90
28520;DHT22;15732;48.534;20.382;2023-10-08T02:32:56;12.80;99.90
28520;DHT22;15732;48.534;20.382;2023-10-08T02:35:24;12.80;99.90
28520;DHT22;15732;48.534;20.382;2023-10-08T02:37:51;12.70;99.90
28520;DHT22;15732;48.534;20.382;2023-10-08T02:40:23;12.70;99.90
28520;DHT22;15732;48.534;20.382;2023-10-08T02:42:53;12.70;99.90
28520;DHT22;15732;48.534;20.382;2023-10-08T02:45:25;12.70;99.90
28520;DHT22;15732;48.534;20.382;2023-10-08T02:47:51;12.70;99.90
28520;DHT22;15732;48.534;20.382;2023-10-08T02:50:18;12.70;99.90
28520;DHT22;15732;48.534;20.382;2023-10-08T02:52:45;12.70;99.90
28520;DHT22;15732;48.534;20.382;2023-10-08T02:55:18;12.70;99.90
28520;DHT22;15732;48.534;20.382;2023-10-08T02:58:02;12.70;99.90
28520;DHT22;15732;48.534;20.382;2023-10-08T03:00:29;12.70;99.90
28520;DHT22;15732;48.534;20.382;2023-10-08T03:02:56;12.70;99.90
28520;DHT22;15732;48.534;20.382;2023-10-08T03:05:30;12.70;99.90
28520;DHT22;15732;48.534;20.382;2023-10-08T03:08:02;12.70;99.90
28520;DHT22;15732;48.534;20.382;2023-10-08T03:10:39;12.80;99.90
28520;DHT22;15732;48.534;20.382;2023-10-08T03:13:08;12.80;99.90
28520;DHT22;15732;48.534;20.382;2023-10-08T03:15:36;12.80;99.90
28520;DHT22;15732;48.534;20.382;2023-10-08T03:18:21;12.70;99.90
28520;DHT22;15732;48.534;20.382;2023-10-08T03:20:47;12.60;99.90
28520;DHT22;15732;48.534;20.382;2023-10-08T03:23:16;12.30;99.90
28520;DHT22;15732;48.534;20.382;2023-10-08T03:26:08;12.20;99.90
28520;DHT22;15732;48.534;20.382;2023-10-08T03:28:38;12.20;99.90
28520;DHT22;15732;48.534;20.382;2023-10-08T03:31:10;12.20;99.90
28520;DHT22;15732;48.534;20.382;2023-10-08T03:33:43;12.30;99.90
28520;DHT22;15732;48.534;20.382;2023-10-08T03:36:17;12.30;99.90
28520;DHT22;15732;48.534;20.382;2023-10-08T03:38:49;12.40;99.90
28520;DHT22;15732;48.534;20.382;2023-10-08T03:41:23;12.50;99.90
28520;DHT22;15732;48.534;20.382;2023-10-08T03:43:56;12.50;99.90
28520;DHT22;15732;48.534;20.382;2023-10-08T03:46:32;12.60;99.90
28520;DHT22;15732;48.534;20.382;2023-10-08T03:49:05;12.60;99.90
28520;DHT22;15732;48.534;20.382;2023-10-08T03:52:01;12.70;99.90
28520;DHT22;15732;48.534;20.382;2023-10-08T03:54:27;12.70;99.90
28520;DHT22;15732;48.534;20.382;2023-10-08T03:57:01;12.80;99.90
28520;DHT22;15732;48.534;20.382;2023-10-08T03:59:42;12.80;99.90
28520;DHT22;15732;48.534;20.382;2023-10-08T04:02:08;12.80;99.90
28520;DHT22;15732;48.534;20.382;2023-10-08T04:04:49;12.80;99.90
28520;DHT22;15732;48.534;20.382;2023-10-08T04:07:23;12.70;99.90
28520;DHT22;15732;48.534;20.382;2023-10-08T04:09:57;12.70;99.90
28520;DHT22;15732;48.534;20.382;2023-10-08T04:12:36;12.60;99.90
28520;DHT22;15732;48.534;20.382;2023-10-08T04:15:10;12.60;99.90
28520;DHT22;15732;48.534;20.382;2023-10-08T04:17:38;12.60;99.90
28520;DHT22;15732;48.534;20.382;2023-10-08T04:20:11;12.60;99.90
28520;DHT22;15732;48.534;20.382;2023-10-08T04:23:02;12.70;99.90
28520;DHT22;15732;48.534;20.382;2023-10-08T04:25:30;12.70;99.90
28520;DHT22;15732;48.534;20.382;2023-10-08T04:27:57;12.70;99.90
28520;DHT22;15732;48.534;20.382;2023-10-08T04:30:27;12.70;99.90
28520;DHT22;15732;48.534;20.382;2023-10-08T04:33:04;12.70;99.90
28520;DHT22;15732;48.534;20.382;2023-10-08T04:35:35;12.70;99.90
28520;DHT22;15732;48.534;20.382;2023-10-08T04:38:20;12.70;99.90
28520;DHT22;15732;48.534;20.382;2023-10-08T04:40:50;12.60;99.90
28520;DHT22;15732;48.534;20.382;2023-10-08T04:43:18;12.60;99.90
28520;DHT22;15732;48.534;20.382;2023-10-08T04:45:51;12.60;99.90
28520;DHT22;15732;48.534;20.382;2023-10-08T04:48:18;12.60;99.90
28520;DHT22;15732;48.534;20.382;2023-10-08T04:50:47;12.60;99.90
28520;DHT22;15732;48.534;20.382;2023-10-08T04:53:27;12.60;99.90
28520;DHT22;15732;48.534;20.382;2023-10-08T04:56:07;12.60;99.90
28520;DHT22;15732;48.534;20.382;2023-10-08T04:58:40;12.60;99.90
28520;DHT22;15732;48.534;20.382;2023-10-08T05:01:07;12.60;99.90
28520;DHT22;15732;48.534;20.382;2023-10-08T05:03:50;12.70;99.90
28520;DHT22;15732;48.534;20.382;2023-10-08T05:06:25;12.70;99.90
28520;DHT22;15732;48.534;20.382;2023-10-08T05:09:11;12.60;99.90
28520;DHT22;15732;48.534;20.382;2023-10-08T05:11:50;12.70;99.90
28520;DHT22;15732;48.534;20.382;2023-10-08T05:14:17;12.70;99.90
28520;DHT22;15732;48.534;20.382;2023-10-08T05:16:59;12.60;99.90
28520;DHT22;15732;48.534;20.382;2023-10-08T05:19:45;12.60;99.90
28520;DHT22;15732;48.534;20.382;2023-10-08T05:22:45;12.60;99.90
28520;DHT22;15732;48.534;20.382;2023-10-08T05:25:21;12.60;99.90
28520;DHT22;15732;48.534;20.382;2023-10-08T05:28:01;12.60;99.90
28520;DHT22;15732;48.534;20.382;2023-10-08T05:30:35;12.70;99.90
28520;DHT22;15732;48.534;20.382;2023-10-08T05:33:24;12.70;99.90
28520;DHT22;15732;48.534;20.382;2023-10-08T05:36:12;12.70;99.90
28520;DHT22;15732;48.534;20.382;2023-10-08T05:38:54;12.80;99.90
28520;DHT22;15732;48.534;20.382;2023-10-08T05:41:27;12.80;99.90
28520;DHT22;15732;48.534;20.382;2023-10-08T05:43:54;12.80;99.90
28520;DHT22;15732;48.534;20.382;2023-10-08T05:46:49;12.90;99.90
28520;DHT22;15732;48.534;20.382;2023-10-08T05:49:22;12.90;99.90
28520;DHT22;15732;48.534;20.382;2023-10-08T05:52:14;13.00;99.90
28520;DHT22;15732;48.534;20.382;2023-10-08T05:54:51;13.00;99.90
28520;DHT22;15732;48.534;20.382;2023-10-08T05:57:36;13.00;99.90
28520;DHT22;15732;48.534;20.382;2023-10-08T06:00:06;13.00;99.90
28520;DHT22;15732;48.534;20.382;2023-10-08T06:02:32;13.10;99.90
28520;DHT22;15732;48.534;20.382;2023-10-08T06:05:02;13.10;99.90
28520;DHT22;15732;48.534;20.382;2023-10-08T06:07:53;13.10;99.90
28520;DHT22;15732;48.534;20.382;2023-10-08T06:10:39;13.20;99.90
28520;DHT22;15732;48.534;20.382;2023-10-08T06:13:09;13.30;99.90
28520;DHT22;15732;48.534;20.382;2023-10-08T06:15:42;13.30;99.90
28520;DHT22;15732;48.534;20.382;2023-10-08T06:18:19;13.30;99.90
28520;DHT22;15732;48.534;20.382;2023-10-08T06:23:21;13.40;99.90
28520;DHT22;15732;48.534;20.382;2023-10-08T06:25:49;13.50;99.90
28520;DHT22;15732;48.534;20.382;2023-10-08T06:28:22;13.50;99.90
28520;DHT22;15732;48.534;20.382;2023-10-08T06:30:53;13.60;99.90
28520;DHT22;15732;48.534;20.382;2023-10-08T06:33:20;13.60;99.90
28520;DHT22;15732;48.534;20.382;2023-10-08T06:35:51;13.70;99.90
28520;DHT22;15732;48.534;20.382;2023-10-08T06:38:36;13.80;99.90
28520;DHT22;15732;48.534;20.382;2023-10-08T06:41:05;13.90;99.90
28520;DHT22;15732;48.534;20.382;2023-10-08T06:43:49;14.00;99.90
28520;DHT22;15732;48.534;20.382;2023-10-08T06:46:29;14.10;99.90
28520;DHT22;15732;48.534;20.382;2023-10-08T06:48:59;14.20;99.90
28520;DHT22;15732;48.534;20.382;2023-10-08T06:51:25;14.30;99.90
28520;DHT22;15732;48.534;20.382;2023-10-08T06:53:52;14.50;99.90
28520;DHT22;15732;48.534;20.382;2023-10-08T06:56:20;14.60;99.90
28520;DHT22;15732;48.534;20.382;2023-10-08T06:58:46;14.70;99.90
28520;DHT22;15732;48.534;20.382;2023-10-08T07:01:19;14.70;99.90
28520;DHT22;15732;48.534;20.382;2023-10-08T07:03:51;14.90;99.90
28520;DHT22;15732;48.534;20.382;2023-10-08T07:06:24;14.90;99.90
28520;DHT22;15732;48.534;20.382;2023-10-08T07:09:00;14.90;99.90
28520;DHT22;15732;48.534;20.382;2023-10-08T07:11:31;14.90;99.90
28520;DHT22;15732;48.534;20.382;2023-10-08T07:14:10;14.90;99.90
28520;DHT22;15732;48.534;20.382;2023-10-08T07:16:37;15.00;99.90
28520;DHT22;15732;48.534;20.382;2023-10-08T07:19:03;14.90;99.90
28520;DHT22;15732;48.534;20.382;2023-10-08T07:21:31;14.80;99.90
28520;DHT22;15732;48.534;20.382;2023-10-08T07:24:11;14.60;99.90
28520;DHT22;15732;48.534;20.382;2023-10-08T07:26:43;14.50;99.90
28520;DHT22;15732;48.534;20.382;2023-10-08T07:29:16;14.40;99.90
28520;DHT22;15732;48.534;20.382;2023-10-08T07:31:47;14.30;99.90
28520;DHT22;15732;48.534;20.382;2023-10-08T07:34:15;14.30;99.90
28520;DHT22;15732;48.534;20.382;2023-10-08T07:36:44;14.30;99.90
28520;DHT22;15732;48.534;20.382;2023-10-08T07:39:11;14.20;99.90
28520;DHT22;15732;48.534;20.382;2023-10-08T07:41:52;14.20;99.90
28520;DHT22;15732;48.534;20.382;2023-10-08T07:44:20;14.20;99.90
28520;DHT22;15732;48.534;20.382;2023-10-08T07:46:49;14.30;99.90
28520;DHT22;15732;48.534;20.382;2023-10-08T07:49:20;14.40;99.90
28520;DHT22;15732;48.534;20.382;2023-10-08T07:51:59;14.30;99.90
28520;DHT22;15732;48.534;20.382;2023-10-08T07:54:26;14.30;99.90
28520;DHT22;15732;48.534;20.382;2023-10-08T07:56:56;14.30;99.90
28520;DHT22;15732;48.534;20.382;2023-10-08T07:59:26;14.20;99.90
28520;DHT22;15732;48.534;20.382;2023-10-08T08:01:53;14.10;99.90
28520;DHT22;15732;48.534;20.382;2023-10-08T08:04:21;14.00;99.90
28520;DHT22;15732;48.534;20.382;2023-10-08T08:06:49;13.90;99.90
28520;DHT22;15732;48.534;20.382;2023-10-08T08:09:17;13.90;99.90
28520;DHT22;15732;48.534;20.382;2023-10-08T08:11:45;13.80;99.90
28520;DHT22;15732;48.534;20.382;2023-10-08T08:14:15;13.80;99.90
28520;DHT22;15732;48.534;20.382;2023-10-08T08:16:50;13.70;99.90
28520;DHT22;15732;48.534;20.382;2023-10-08T08:19:17;13.70;99.90
28520;DHT22;15732;48.534;20.382;2023-10-08T08:21:50;13.80;99.90
28520;DHT22;15732;48.534;20.382;2023-10-08T08:24:18;13.80;99.90
28520;DHT22;15732;48.534;20.382;2023-10-08T08:27:01;13.80;99.90
28520;DHT22;15732;48.534;20.382;2023-10-08T08:29:37;13.90;99.90
28520;DHT22;15732;48.534;20.382;2023-10-08T08:32:13;13.90;99.90
28520;DHT22;15732;48.534;20.382;2023-10-08T08:34:56;13.90;99.90
28520;DHT22;15732;48.534;20.382;2023-10-08T08:37:24;14.00;99.90
28520;DHT22;15732;48.534;20.382;2023-10-08T08:39:57;14.00;99.90
28520;DHT22;15732;48.534;20.382;2023-10-08T08:42:24;14.00;99.90
28520;DHT22;15732;48.534;20.382;2023-10-08T08:44:53;14.10;99.90
28520;DHT22;15732;48.534;20.382;2023-10-08T08:47:21;14.20;99.90
28520;DHT22;15732;48.534;20.382;2023-10-08T08:49:51;14.20;99.90
28520;DHT22;15732;48.534;20.382;2023-10-08T08:52:21;14.20;99.90
28520;DHT22;15732;48.534;20.382;2023-10-08T08:54:48;14.20;99.90
28520;DHT22;15732;48.534;20.382;2023-10-08T08:57:15;14.30;99.90
28520;DHT22;15732;48.534;20.382;2023-10-08T08:59:49;14.30;99.90
28520;DHT22;15732;48.534;20.382;2023-10-08T09:02:19;14.30;99.90
28520;DHT22;15732;48.534;20.382;2023-10-08T09:04:46;14.40;99.90
28520;DHT22;15732;48.534;20.382;2023-10-08T09:07:20;14.40;99.90
28520;DHT22;15732;48.534;20.382;2023-10-08T09:09:50;14.40;99.90
28520;DHT22;15732;48.534;20.382;2023-10-08T09:12:17;14.50;99.90
28520;DHT22;15732;48.534;20.382;2023-10-08T09:14:44;14.40;99.90
28520;DHT22;15732;48.534;20.382;2023-10-08T09:17:15;14.30;99.90
28520;DHT22;15732;48.534;20.382;2023-10-08T09:19:43;14.40;99.90
28520;DHT22;15732;48.534;20.382;2023-10-08T09:22:10;14.30;99.90
28520;DHT22;15732;48.534;20.382;2023-10-08T09:24:41;14.30;99.90
28520;DHT22;15732;48.534;20.382;2023-10-08T09:27:12;14.30;99.90
28520;DHT22;15732;48.534;20.382;2023-10-08T09:29:42;14.30;99.90
28520;DHT22;15732;48.534;20.382;2023-10-08T09:32:09;14.30;99.90
28520;DHT22;15732;48.534;20.382;2023-10-08T09:34:40;14.40;99.90
28520;DHT22;15732;48.534;20.382;2023-10-08T09:37:10;14.50;99.90
28520;DHT22;15732;48.534;20.382;2023-10-08T09:39:37;14.60;99.90
28520;DHT22;15732;48.534;20.382;2023-10-08T09:42:05;14.60;99.90
28520;DHT22;15732;48.534;20.382;2023-10-08T09:44:32;14.60;99.90
28520;DHT22;15732;48.534;20.382;2023-10-08T09:49:29;14.60;99.90
28520;DHT22;15732;48.534;20.382;2023-10-08T09:52:04;14.70;99.90
28520;DHT22;15732;48.534;20.382;2023-10-08T09:54:53;15.00;99.90
28520;DHT22;15732;48.534;20.382;2023-10-08T09:57:25;15.20;99.90
28520;DHT22;15732;48.534;20.382;2023-10-08T09:59:52;15.30;99.90
28520;DHT22;15732;48.534;20.382;2023-10-08T10:02:19;15.40;99.90
28520;DHT22;15732;48.534;20.382;2023-10-08T10:04:54;15.50;99.90
28520;DHT22;15732;48.534;20.382;2023-10-08T10:07:25;15.60;99.90
28520;DHT22;15732;48.534;20.382;2023-10-08T10:09:51;15.70;99.90
28520;DHT22;15732;48.534;20.382;2023-10-08T10:12:25;15.70;99.90
28520;DHT22;15732;48.534;20.382;2023-10-08T10:14:55;15.60;99.90
28520;DHT22;15732;48.534;20.382;2023-10-08T10:17:29;15.60;99.90
28520;DHT22;15732;48.534;20.382;2023-10-08T10:19:56;15.60;99.90
28520;DHT22;15732;48.534;20.382;2023-10-08T10:22:29;15.50;99.90
28520;DHT22;15732;48.534;20.382;2023-10-08T10:25:03;15.60;99.90
28520;DHT22;15732;48.534;20.382;2023-10-08T10:30:25;15.80;99.90
28520;DHT22;15732;48.534;20.382;2023-10-08T10:32:54;15.80;99.90
28520;DHT22;15732;48.534;20.382;2023-10-08T10:35:20;15.90;99.90
28520;DHT22;15732;48.534;20.382;2023-10-08T10:37:46;15.90;99.90
28520;DHT22;15732;48.534;20.382;2023-10-08T10:40:24;15.90;99.90
28520;DHT22;15732;48.534;20.382;2023-10-08T10:43:05;16.00;99.90
28520;DHT22;15732;48.534;20.382;2023-10-08T10:45:41;16.00;99.90
28520;DHT22;15732;48.534;20.382;2023-10-08T10:48:10;16.10;99.90
28520;DHT22;15732;48.534;20.382;2023-10-08T10:50:49;16.10;99.90
28520;DHT22;15732;48.534;20.382;2023-10-08T10:55:59;16.20;99.90
28520;DHT22;15732;48.534;20.382;2023-10-08T10:58:35;16.10;99.90
28520;DHT22;15732;48.534;20.382;2023-10-08T11:01:05;16.10;99.90
28520;DHT22;15732;48.534;20.382;2023-10-08T11:03:50;16.10;99.90
28520;DHT22;15732;48.534;20.382;2023-10-08T11:06:18;16.10;99.90
28520;DHT22;15732;48.534;20.382;2023-10-08T11:08:51;16.10;99.90
28520;DHT22;15732;48.534;20.382;2023-10-08T11:11:19;16.10;99.90
28520;DHT22;15732;48.534;20.382;2023-10-08T11:13:45;16.10;99.90
28520;DHT22;15732;48.534;20.382;2023-10-08T11:16:32;16.10;99.90
28520;DHT22;15732;48.534;20.382;2023-10-08T11:19:07;16.10;99.90
28520;DHT22;15732;48.534;20.382;2023-10-08T11:21:50;16.10;99.90
28520;DHT22;15732;48.534;20.382;2023-10-08T11:24:30;16.10;99.90
28520;DHT22;15732;48.534;20.382;2023-10-08T11:26:59;16.10;99.90
28520;DHT22;15732;48.534;20.382;2023-10-08T11:29:48;16.10;99.90
28520;DHT22;15732;48.534;20.382;2023-10-08T11:32:23;16.10;99.90
28520;DHT22;15732;48.534;20.382;2023-10-08T11:34:58;16.10;99.90
28520;DHT22;15732;48.534;20.382;2023-10-08T11:37:30;16.00;99.90
28520;DHT22;15732;48.534;20.382;2023-10-08T11:40:00;16.10;99.90
28520;DHT22;15732;48.534;20.382;2023-10-08T11:42:38;16.10;99.90
28520;DHT22;15732;48.534;20.382;2023-10-08T11:45:05;16.10;99.90
28520;DHT22;15732;48.534;20.382;2023-10-08T11:48:05;16.20;99.90
28520;DHT22;15732;48.534;20.382;2023-10-08T11:50:39;16.10;99.90
28520;DHT22;15732;48.534;20.382;2023-10-08T11:53:06;16.20;99.90
28520;DHT22;15732;48.534;20.382;2023-10-08T11:55:33;16.20;99.90
28520;DHT22;15732;48.534;20.382;2023-10-08T11:58:05;16.20;99.90
28520;DHT22;15732;48.534;20.382;2023-10-08T12:00:38;16.20;99.90
28520;DHT22;15732;48.534;20.382;2023-10-08T12:03:13;16.30;99.90
28520;DHT22;15732;48.534;20.382;2023-10-08T12:05:44;16.20;99.90
28520;DHT22;15732;48.534;20.382;2023-10-08T12:08:14;16.30;99.90
28520;DHT22;15732;48.534;20.382;2023-10-08T12:10:46;16.30;99.90
28520;DHT22;15732;48.534;20.382;2023-10-08T12:13:18;16.30;99.90
28520;DHT22;15732;48.534;20.382;2023-10-08T12:15:51;16.20;99.90
28520;DHT22;15732;48.534;20.382;2023-10-08T12:18:18;16.20;99.90
28520;DHT22;15732;48.534;20.382;2023-10-08T12:20:50;16.30;99.90
28520;DHT22;15732;48.534;20.382;2023-10-08T12:23:18;16.20;99.90
28520;DHT22;15732;48.534;20.382;2023-10-08T12:25:51;16.20;99.90
28520;DHT22;15732;48.534;20.382;2023-10-08T12:28:18;16.20;99.90
28520;DHT22;15732;48.534;20.382;2023-10-08T12:30:45;16.20;99.90
28520;DHT22;15732;48.534;20.382;2023-10-08T12:33:12;16.20;99.90
28520;DHT22;15732;48.534;20.382;2023-10-08T12:35:42;16.20;99.90
28520;DHT22;15732;48.534;20.382;2023-10-08T12:38:10;16.30;99.90
28520;DHT22;15732;48.534;20.382;2023-10-08T12:40:41;16.30;99.90
28520;DHT22;15732;48.534;20.382;2023-10-08T12:43:13;16.30;99.90
28520;DHT22;15732;48.534;20.382;2023-10-08T12:45:45;16.30;99.90
28520;DHT22;15732;48.534;20.382;2023-10-08T12:48:21;16.30;99.90
28520;DHT22;15732;48.534;20.382;2023-10-08T12:50:48;16.30;99.90
28520;DHT22;15732;48.534;20.382;2023-10-08T12:53:25;16.30;99.90
28520;DHT22;15732;48.534;20.382;2023-10-08T12:56:03;16.30;99.90
28520;DHT22;15732;48.534;20.382;2023-10-08T12:58:58;16.10;99.90
28520;DHT22;15732;48.534;20.382;2023-10-08T13:01:24;16.20;99.90
28520;DHT22;15732;48.534;20.382;2023-10-08T13:03:58;16.10;99.90
28520;DHT22;15732;48.534;20.382;2023-10-08T13:06:27;16.10;99.90
28520;DHT22;15732;48.534;20.382;2023-10-08T13:08:55;16.10;99.90
28520;DHT22;15732;48.534;20.382;2023-10-08T13:11:22;16.10;99.90
28520;DHT22;15732;48.534;20.382;2023-10-08T13:13:49;16.00;99.90
28520;DHT22;15732;48.534;20.382;2023-10-08T13:16:16;16.00;99.90
28520;DHT22;15732;48.534;20.382;2023-10-08T13:18:43;16.10;99.90
28520;DHT22;15732;48.534;20.382;2023-10-08T13:21:10;16.10;99.90
28520;DHT22;15732;48.534;20.382;2023-10-08T13:23:37;16.10;99.90
28520;DHT22;15732;48.534;20.382;2023-10-08T13:26:03;16.10;99.90
28520;DHT22;15732;48.534;20.382;2023-10-08T13:28:30;16.10;99.90
28520;DHT22;15732;48.534;20.382;2023-10-08T13:31:00;16.10;99.90
28520;DHT22;15732;48.534;20.382;2023-10-08T13:33:39;16.10;99.90
28520;DHT22;15732;48.534;20.382;2023-10-08T13:36:06;16.10;99.90
28520;DHT22;15732;48.534;20.382;2023-10-08T13:38:35;16.10;99.90
28520;DHT22;15732;48.534;20.382;2023-10-08T13:41:04;16.10;99.90
28520;DHT22;15732;48.534;20.382;2023-10-08T13:43:48;16.10;99.90
28520;DHT22;15732;48.534;20.382;2023-10-08T13:46:15;16.10;99.90
28520;DHT22;15732;48.534;20.382;2023-10-08T13:48:46;16.10;99.90
28520;DHT22;15732;48.534;20.382;2023-10-08T13:51:15;16.20;99.90
28520;DHT22;15732;48.534;20.382;2023-10-08T13:53:49;16.20;99.90
28520;DHT22;15732;48.534;20.382;2023-10-08T13:56:21;16.20;99.90
28520;DHT22;15732;48.534;20.382;2023-10-08T13:58:51;16.20;99.90
28520;DHT22;15732;48.534;20.382;2023-10-08T14:01:36;16.20;99.90
28520;DHT22;15732;48.534;20.382;2023-10-08T14:04:05;16.20;99.90
28520;DHT22;15732;48.534;20.382;2023-10-08T14:06:32;16.20;99.90
28520;DHT22;15732;48.534;20.382;2023-10-08T14:09:00;16.10;99.90
28520;DHT22;15732;48.534;20.382;2023-10-08T14:11:30;16.10;99.90
28520;DHT22;15732;48.534;20.382;2023-10-08T14:13:59;16.10;99.90
28520;DHT22;15732;48.534;20.382;2023-10-08T14:16:34;16.10;99.90
28520;DHT22;15732;48.534;20.382;2023-10-08T14:19:01;16.10;99.90
28520;DHT22;15732;48.534;20.382;2023-10-08T14:21:30;16.00;99.90
28520;DHT22;15732;48.534;20.382;2023-10-08T14:24:02;15.90;99.90
28520;DHT22;15732;48.534;20.382;2023-10-08T14:26:31;15.90;99.90
28520;DHT22;15732;48.534;20.382;2023-10-08T14:29:03;15.90;99.90
28520;DHT22;15732;48.534;20.382;2023-10-08T14:31:41;15.90;99.90
28520;DHT22;15732;48.534;20.382;2023-10-08T14:34:18;15.90;99.90
28520;DHT22;15732;48.534;20.382;2023-10-08T14:36:48;15.90;99.90
28520;DHT22;15732;48.534;20.382;2023-10-08T14:39:33;15.90;99.90
28520;DHT22;15732;48.534;20.382;2023-10-08T14:42:19;15.90;99.90
28520;DHT22;15732;48.534;20.382;2023-10-08T14:45:03;15.90;99.90
28520;DHT22;15732;48.534;20.382;2023-10-08T14:47:37;15.90;99.90
28520;DHT22;15732;48.534;20.382;2023-10-08T14:50:08;15.90;99.90
28520;DHT22;15732;48.534;20.382;2023-10-08T14:52:43;15.90;99.90
28520;DHT22;15732;48.534;20.382;2023-10-08T14:55:09;15.80;99.90
28520;DHT22;15732;48.534;20.382;2023-10-08T14:57:37;15.90;99.90
28520;DHT22;15732;48.534;20.382;2023-10-08T15:00:05;15.80;99.90
28520;DHT22;15732;48.534;20.382;2023-10-08T15:02:33;15.80;99.90
28520;DHT22;15732;48.534;20.382;2023-10-08T15:05:06;15.80;99.90
28520;DHT22;15732;48.534;20.382;2023-10-08T15:07:50;15.70;99.90
28520;DHT22;15732;48.534;20.382;2023-10-08T15:10:20;15.70;99.90
28520;DHT22;15732;48.534;20.382;2023-10-08T15:13:07;15.70;99.90
28520;DHT22;15732;48.534;20.382;2023-10-08T15:15:33;15.70;99.90
28520;DHT22;15732;48.534;20.382;2023-10-08T15:18:04;15.70;99.90
28520;DHT22;15732;48.534;20.382;2023-10-08T15:20:37;15.70;99.90
28520;DHT22;15732;48.534;20.382;2023-10-08T15:23:07;15.70;99.90
28520;DHT22;15732;48.534;20.382;2023-10-08T15:25:38;15.70;99.90
28520;DHT22;15732;48.534;20.382;2023-10-08T15:28:08;15.60;99.90
28520;DHT22;15732;48.534;20.382;2023-10-08T15:30:35;15.60;99.90
28520;DHT22;15732;48.534;20.382;2023-10-08T15:33:02;15.50;99.90
28520;DHT22;15732;48.534;20.382;2023-10-08T15:35:29;15.50;99.90
28520;DHT22;15732;48.534;20.382;2023-10-08T15:37:56;15.40;99.90
28520;DHT22;15732;48.534;20.382;2023-10-08T15:40:24;15.40;99.90
28520;DHT22;15732;48.534;20.382;2023-10-08T15:42:51;15.30;99.90
28520;DHT22;15732;48.534;20.382;2023-10-08T15:45:18;15.20;99.90
28520;DHT22;15732;48.534;20.382;2023-10-08T15:47:47;15.20;99.90
28520;DHT22;15732;48.534;20.382;2023-10-08T15:50:13;15.10;99.90
28520;DHT22;15732;48.534;20.382;2023-10-08T15:52:40;14.90;99.90
28520;DHT22;15732;48.534;20.382;2023-10-08T15:55:07;14.90;99.90
28520;DHT22;15732;48.534;20.382;2023-10-08T15:57:37;14.70;99.90
28520;DHT22;15732;48.534;20.382;2023-10-08T16:00:06;14.60;99.90